Draper, South Dakota
Current Conditions -  °F | °C
As of 12:53 AM on Sunday 26 Oct 2014 (Local Time) from KPIR Reporting Station
Clear Clear  
Wind Chill: 43°   Ceiling: Unl
Heat Index: 48°   Visibility: 10mi
Dew Point: 36°   Wind: 10mph
Humidity: 63%   Direction: 100°E
Pressure: 29.89"   Gusts: NA
Location:  43.93°N, 100.54°W
Report Text: KPIR 260553Z AUTO 10009KT 10SM CLR 09/02 A2989 RMK AO2 SLP120 T00890022 10133 20083 402000028 58026
Loading
Personal Weather Stations






























Interactive Weather Map
Tropical Storm Tracking
New forecast layout! Learn more

10-Day Weather Forecast

Advertisements
Track Severe Weather on mobile